logo
App data

Restaurant Empire II

The sequel to the widely popular Restaurant Empire game takes you further into the depths and delights of the culinary universe than ever before. Take part in an exciting world where the customers are fickle and the bounty in your cash register changes as quickly as their tastes.
Store | Hub | SteamDB | Site
Developer: Enlight Software Limited Publisher: Enlight Software Limited
Genre: Casual, Indie, Simulation, Strategy
Languages: English, French
Tags: Simulation (52), Management (47), Casual (36), Strategy (33), Indie (28), Economy (24)
Category: Single-player
Release date: May 27, 2009
Price: $19.99
Old userscore: 68% Metascore: 64%
Owners: 50,000 .. 100,000
Followers: 870
Peak concurrent players yesterday: 11
Playtime total: 00:01 (average) 00:01 (median)

Steam Spy is still in beta, so expect major bugs.

Owners data:

Access restricted.

This feature is only available to users with special access rights. Sorry.

If you want to proceed, you need to register or log in first and then back Steam Spy on Patreon. Look for Indie or Pro pledge.

Don't forget to use the same email as on Steam Spy!

Audience in 2 weeks:

Access restricted.

This feature is only available to users with special access rights. Sorry.

If you want to proceed, you need to register or log in first and then back Steam Spy on Patreon. Look for Indie or Pro pledge.

Don't forget to use the same email as on Steam Spy!

Peak daily concurrent players:

CCU data courtesy of SteamDB. Used with permission.

Hourly concurrent players:

Followers over time

Access restricted.

This feature is only available to users with special access rights. Sorry.

If you want to proceed, you need to register or log in first and then back Steam Spy on Patreon. Look for Indie or Pro pledge.

Don't forget to use the same email as on Steam Spy!

Views for top 50 videos on YouTube for this game:

Games similar to this one:

# Game Release date
Price
Score rank
(Userscore / Metascore)
Owners
Players
Playtime (Median)
1 Mind Games Mar 4, 2016 $2.99N/A (N/A)20,000 .. 50,0000%00:00 (00:00)
2 One Last Chance Apr 7, 2016 $3.99N/A (N/A)20,000 .. 50,0000%00:00 (00:00)
3 Whirligig VR Media Player Apr 3, 2016 $3.99N/A (N/A)20,000 .. 50,0000%00:00 (00:00)
4 Lift It Jan 20, 2017 $4.99N/A (N/A)50,000 .. 100,0000%00:00 (00:00)
5 Hustle Cat Mar 16, 2016 $19.99N/A (N/A)50,000 .. 100,0000%00:00 (00:00)
6 Cibele Nov 2, 2015 $8.99N/A (N/A/71%)50,000 .. 100,0000%00:00 (00:00)
7 Blueprint Tycoon May 13, 2016 $2.99N/A (N/A)50,000 .. 100,0000%00:00 (00:00)
8 Modbox Apr 5, 2016 N/AN/A (N/A)20,000 .. 50,0000%00:00 (00:00)
9 Burst Mar 14, 2016 N/AN/A (N/A)20,000 .. 50,0007.14%02:10 (00:43)
10 Rescue Team 5 Nov 18, 2015 $3.99N/A (N/A)0 .. 20,0000%00:00 (00:00)
11 JiPS Apr 19, 2016 $1.46N/A (N/A)20,000 .. 50,0000%00:00 (00:00)
12 Bunny Hop League Apr 27, 2017 $5.99N/A (N/A)50,000 .. 100,0000%00:00 (00:00)
13 Forgotten, Not Lost - A Kinetic Novel Apr 1, 2016 $1.99N/A (N/A)20,000 .. 50,0000%00:00 (00:00)
14 Surfingers Jan 27, 2016 $1.99N/A (N/A)50,000 .. 100,0000%00:00 (00:00)
15 Melting Hearts: Our Love Will Grow 2 Apr 29, 2016 N/AN/A (N/A)20,000 .. 50,0000%00:00 (00:00)
16 Sophie's Curse Mar 16, 2016 $4.99N/A (N/A)50,000 .. 100,0000%00:00 (00:00)
17 Love in the Glen Jun 8, 2016 $5.99N/A (N/A)20,000 .. 50,0000%00:00 (00:00)
18 Gravity Cat Jul 13, 2016 $2.99N/A (N/A)20,000 .. 50,0000%00:00 (00:00)
19 Timore 5 Aug 25, 2016 $7.99N/A (N/A)0 .. 20,0000%00:00 (00:00)
20 ConflictCraft Dec 8, 2016 $1.99N/A (N/A)100,000 .. 200,0000%00:00 (00:00)
21 Townopolis Apr 27, 2016 $3.99N/A (N/A)20,000 .. 50,0000%00:00 (00:00)
22 The Housewife Aug 25, 2016 $4.99N/A (N/A)200,000 .. 500,0000%00:00 (00:00)
23 Autumn May 14, 2016 $2.99N/A (N/A)50,000 .. 100,0000%00:00 (00:00)
24 Riddles Of The Past Jul 22, 2016 $6.99N/A (N/A)20,000 .. 50,0000%00:00 (00:00)
25 The Dolls: Reborn May 25, 2016 $4.99N/A (N/A)20,000 .. 50,0000%00:00 (00:00)
26 Hospitalize Sep 21, 2016 $15.99N/A (N/A)0 .. 20,0000%00:00 (00:00)
27 Magma Tsunami Jun 1, 2016 $0.99N/A (N/A)200,000 .. 500,0000%00:00 (00:00)
28 Strategy & Tactics: Dark Ages Aug 4, 2017 $14.99N/A (N/A)50,000 .. 100,0000%00:00 (00:00)
29 Space Hole 2016 Sep 2, 2016 $0.99N/A (N/A)0 .. 20,0000%00:00 (00:00)
30 Farm Life: Natures Adventure Aug 23, 2016 $0.99N/A (N/A)50,000 .. 100,0000%00:00 (00:00)
31 Frog Climbers Oct 6, 2016 $6.99N/A (N/A)20,000 .. 50,0000%00:00 (00:00)
32 Mu Cartographer Aug 24, 2016 $4.99N/A (N/A)20,000 .. 50,0000%00:00 (00:00)
33 Color Syndrome Aug 1, 2016 $0.99N/A (N/A)50,000 .. 100,0000%00:00 (00:00)
34 Dots eXtreme Sep 13, 2016 $1.99N/A (N/A)20,000 .. 50,0000%00:00 (00:00)
35 Tribloos 2 Jan 30, 2014 $4.99N/A (N/A)50,000 .. 100,0000%00:00 (00:00)
36 Puzzler World 2 Oct 24, 2011 $4.99N/A (N/A)50,000 .. 100,0000%00:00 (00:00)
37 On Rusty Trails Jun 13, 2016 $12.99N/A (N/A/77%)20,000 .. 50,0000%00:00 (00:00)
38 Luxor Evolved Mar 1, 2012 $9.99N/A (N/A)50,000 .. 100,0000%00:00 (00:00)
39 Thrillville: Off the Rails Jul 8, 2009 $9.99N/A (N/A/70%)20,000 .. 50,0000%00:00 (00:00)
40 Storm Jun 27, 2013 $9.99N/A (N/A/63%)20,000 .. 50,0000%00:00 (00:00)
41 Crayon Physics Deluxe May 6, 2009 $19.99N/A (N/A/79%)500,000 .. 1,000,0000%00:00 (00:00)
42 InFlux Sep 18, 2013 $9.99N/A (N/A)50,000 .. 100,0000%00:00 (00:00)
43 Luxor: 5th Passage Jan 25, 2011 $9.99N/A (N/A)50,000 .. 100,0000%00:00 (00:00)
44 Gravi Oct 8, 2013 $4.99N/A (N/A)0 .. 20,0000%00:00 (00:00)
45 Glowfish Sep 30, 2011 $9.99N/A (N/A)20,000 .. 50,0000%00:00 (00:00)
46 Dead Man's Draw Feb 6, 2014 $6.99N/A (N/A)50,000 .. 100,0000%00:00 (00:00)
47 Governor of Poker 2 - Premium Edition Oct 11, 2010 $14.99N/A (N/A)20,000 .. 50,0000%00:00 (00:00)
48 Girls Like Robots Feb 14, 2014 $6.99N/A (N/A)100,000 .. 200,0000%00:00 (00:00)
49 PixelJunk Eden Feb 2, 2012 $9.99N/A (N/A/81%)200,000 .. 500,0000%00:00 (00:00)
50 Grapple Mar 9, 2015 $6.99N/A (N/A)20,000 .. 50,0000%00:00 (00:00)
51 Blocks That Matter Aug 19, 2011 $4.99N/A (N/A/72%)200,000 .. 500,0000%00:00 (00:00)
52 Dungeon Painter Studio Feb 26, 2017 $14.99N/A (N/A)50,000 .. 100,0000%00:00 (00:00)
53 Oik 2 Mar 28, 2017 $0.99N/A (N/A)20,000 .. 50,0000%00:00 (00:00)
54 Where are my Internets? Dec 16, 2016 $2.99N/A (N/A)50,000 .. 100,0000%00:00 (00:00)
55 CrossCells May 26, 2017 $2.99N/A (N/A)50,000 .. 100,0000%00:00 (00:00)
56 The Legions of Rome Sep 13, 2016 $2.99N/A (N/A)0 .. 20,0000%00:00 (00:00)
57 CarX Drift Racing Online Nov 17, 2017 $14.99N/A (N/A)200,000 .. 500,0009.09%00:08 (00:02)
58 Luke Sidewalker Dec 5, 2016 FreeN/A (N/A)50,000 .. 100,0000%00:00 (00:00)
59 iREC Jan 16, 2017 FreeN/A (N/A)50,000 .. 100,0000%00:00 (00:00)
60 Winexy Jan 13, 2017 $0.49N/A (N/A)50,000 .. 100,0000%00:00 (00:00)
61 Stickmageddon Jun 27, 2017 $0.99N/A (N/A)50,000 .. 100,0000%00:00 (00:00)
62 Ninja Stealth 2 Jan 30, 2017 $0.49N/A (N/A)20,000 .. 50,00025%02:03 (00:41)
63 Wildlife Park 2 - Fantasy Nov 15, 2013 $0.99N/A (N/A)20,000 .. 50,0000%00:00 (00:00)
64 Crash Drive 2 May 28, 2015 $4.99N/A (N/A)100,000 .. 200,0000%00:00 (00:00)
65 A Good Snowman Is Hard To Build Feb 25, 2015 $9.99N/A (N/A)20,000 .. 50,0000%00:00 (00:00)
66 Strata May 29, 2014 $7.99N/A (N/A)20,000 .. 50,0000%00:00 (00:00)
67 Quantum Rush Champions Dec 4, 2014 $9.99N/A (N/A)20,000 .. 50,0000%00:00 (00:00)
68 Wildlife Park 3 May 12, 2014 $9.99N/A (N/A)100,000 .. 200,0000%00:00 (00:00)
69 Beyond Gravity Sep 23, 2014 $1.99N/A (N/A)20,000 .. 50,0000%00:00 (00:00)
70 Pressured Jul 18, 2014 $0.89N/A (N/A)200,000 .. 500,0000%00:00 (00:00)
71 Cosmonautica Jul 31, 2015 $9.99N/A (N/A)200,000 .. 500,0000%00:00 (00:00)
72 Automation - The Car Company Tycoon Game Mar 12, 2015 $29.99N/A (N/A)200,000 .. 500,00020%01:45 (00:56)
73 Letter Quest: Grimm's Journey Nov 20, 2014 N/AN/A (N/A/73%)100,000 .. 200,0000%00:00 (00:00)
74 The Treasures of Montezuma 4 May 16, 2014 $6.99N/A (N/A)20,000 .. 50,0000%00:00 (00:00)
75 Goats on a Bridge Feb 6, 2015 $4.99N/A (N/A)20,000 .. 50,0000%00:00 (00:00)
76 Cyto Jul 10, 2014 $3.99N/A (N/A)20,000 .. 50,0000%00:00 (00:00)
77 Marble Duel: Sphere-Matching Tactical Fantasy Nov 12, 2015 $14.99N/A (N/A)50,000 .. 100,0000%00:00 (00:00)
78 Wildlife Park 2 - Dino World Mar 30, 2012 $3.99N/A (N/A)20,000 .. 50,0000%00:00 (00:00)
79 Pixel Survivors May 5, 2016 $3.99N/A (N/A)100,000 .. 200,0000%00:00 (00:00)
80 Red Goblin: Cursed Forest May 15, 2015 $4.99N/A (N/A)0 .. 20,0000%00:00 (00:00)
81 The Deletion Jul 30, 2015 $1.99N/A (N/A)20,000 .. 50,0000%00:00 (00:00)
82 Power of Love Jul 21, 2015 $0.99N/A (N/A)20,000 .. 50,0000%00:00 (00:00)
83 Bob Was Hungry Aug 19, 2015 $9.99N/A (N/A)50,000 .. 100,0000%00:00 (00:00)
84 Hired Ops Oct 21, 2016 FreeN/A (N/A)100,000 .. 200,0000%00:00 (00:00)
85 Pixel Puzzles 2: Birds Feb 20, 2015 $4.99N/A (N/A)200,000 .. 500,0000%00:00 (00:00)
86 Fate Tectonics Sep 9, 2015 $4.99N/A (N/A)20,000 .. 50,0000%00:00 (00:00)
87 Quell May 14, 2015 $3.99N/A (N/A)0 .. 20,0000%00:00 (00:00)
88 Painters Guild Sep 1, 2015 $9.99N/A (N/A)20,000 .. 50,0000%00:00 (00:00)
89 Stay Alight Mar 2, 2015 $3.99N/A (N/A)50,000 .. 100,0000%00:00 (00:00)
90 Job the Leprechaun Jul 31, 2015 $2.99N/A (N/A)20,000 .. 50,0000%00:00 (00:00)
91 Streets of Chaos Jan 28, 2015 N/AN/A (N/A)100,000 .. 200,0000%00:00 (00:00)
92 Fantastic Contraption Apr 5, 2016 $19.99N/A (N/A)0 .. 20,0000%00:00 (00:00)
93 Chip's Challenge 2 May 28, 2015 $4.99N/A (N/A)0 .. 20,0000%00:00 (00:00)
94 Asphyxia Aug 4, 2015 $5.99N/A (N/A)20,000 .. 50,0000%00:00 (00:00)
95 Pester Aug 21, 2015 $0.99N/A (N/A)100,000 .. 200,0000%00:00 (00:00)
96 Robot vs Birds Zombies Jun 1, 2013 $0.99N/A (N/A)500,000 .. 1,000,0000%00:00 (00:00)

Tags over time:

Access restricted.

This feature is only available to users with special access rights. Sorry.

If you want to proceed, you need to register or log in first and then back Steam Spy on Patreon. Look for Indie or Pro pledge.

Don't forget to use the same email as on Steam Spy!

Owners of this game also own:

Access restricted.

This feature is only available to users with special access rights. Sorry.

If you want to proceed, you need to register or log in first and then back Steam Spy on Patreon. Look for Indie or Pro pledge.

Don't forget to use the same email as on Steam Spy!

Playtime distribution:

Access restricted.

This feature is only available to users with special access rights. Sorry.

If you want to proceed, you need to register or log in first and then back Steam Spy on Patreon. Look for Indie or Pro pledge.

Don't forget to use the same email as on Steam Spy!

Playtime (2 weeks):

Access restricted.

This feature is only available to users with special access rights. Sorry.

If you want to proceed, you need to register or log in first and then back Steam Spy on Patreon. Look for Indie or Pro pledge.

Don't forget to use the same email as on Steam Spy!

User reviews:

Login required.

Please register or log in to see this information.